Portada
METAR-TAF:

METAR-TAF

Aeropuertos :

Aeropuerto Internacional de Baréin

Baréin, Bahréin

latitud: 26-16N, longitud: 050-39E, altitud: 2 m

Observación

El informe se hizo hace 26 minutos, a las 01:30 UTC
Viento 5 kt del norte-noroeste
Temperatura 24°C
Humedad 78%
Presión 1015 hPa
Visibilidad 10 km o más
sin nubes por debajo de 1500 m y sin presencia de cumulonimbus.

METAR: OBBI 040130Z 33005KT CAVOK 24/20 Q1015 NOSIG

Hora: 04:56 (01:56 UTC)

Pronóstico

El informe se hizo hace 2 horas y 56 minutos, a las 23:00 UTC
Pronóstico válido del 04 a las 00 UTC al 05 a las 06 UTC
Viento 10 kt del norte
Visibilidad 10 km o más
Escasas nubes a una altura de 2500 ft
Probabilidad 30% :
Temporalmente
del 04 a las 01 UTC al 04 a las 05 UTC
Visibilidad: 4000 m
Nubes dispersas a una altura de 1000 ft
calima

TAF: OBBI 032300Z 0400/0506 01010KT 9999 FEW025 PROB30 TEMPO 0401/0405 4000 HZ SCT010

Observaciones y pronósticos meteorológicos de más de 4000 aeropuertos (mensajes METAR y TAF).

Los puntos amarillos y rojos representan las estaciones disponibles.

Ponga el ratón en el punto deseado para ver el nombre de la estación.

Haga clic para ver las observaciones y los pronósticos meteorológicos.

Para cambiar el mapa : haga clic en los botones verdes con una cruz de color negro para hacer un zoom, en el botón verde con un guión para alejar o en las flechas verdes para mapas adyacentes.


METAR-TAF: